Time;durP1;ratioP1;P1;durP2;ratioP2;P2;SDS_P1;SDS_P2;PMS_P1;PMS_P2;Temp;Humidity;BMP_temperature;BMP_pressure;BME280_temperature;BME280_humidity;BME280_pressure;Samples;Min_cycle;Max_cycle;Signal;HPM_P1;HPM_P2
2022/10/06 05:45:18;;;;;;;3.28;0.68;;;14.90;99.90;;;;;;5101250;27;20402;-73
2022/10/06 05:47:43;;;;;;;1.90;0.57;;;14.70;99.90;;;;;;5079948;28;20422;-73
2022/10/06 05:50:09;;;;;;;1.15;0.70;;;14.80;99.90;;;;;;5082157;28;20115;-72
2022/10/06 05:52:34;;;;;;;3.33;1.17;;;15.00;99.90;;;;;;5082803;28;20035;-73
2022/10/06 05:55:00;;;;;;;1.13;0.60;;;15.20;99.90;;;;;;5084374;28;20039;-73
2022/10/06 05:57:27;;;;;;;3.75;1.40;;;15.30;99.90;;;;;;5082615;28;20020;-73
2022/10/06 05:59:52;;;;;;;0.90;0.65;;;15.50;99.90;;;;;;5083488;28;20031;-73
2022/10/06 06:02:18;;;;;;;3.33;0.55;;;15.60;99.90;;;;;;5084312;28;20028;-73
2022/10/06 06:04:43;;;;;;;1.42;0.90;;;15.70;99.90;;;;;;5084659;28;20609;-73
2022/10/06 06:07:09;;;;;;;2.78;0.70;;;15.80;99.90;;;;;;5083121;28;20520;-73
2022/10/06 06:09:35;;;;;;;0.50;0.50;;;15.90;99.90;;;;;;5080070;28;20027;-72
2022/10/06 06:12:00;;;;;;;1.05;0.50;;;16.00;99.90;;;;;;5084086;28;20024;-73
2022/10/06 06:17:10;;;;;;;0.95;0.50;;;16.00;99.90;;;;;;5084036;28;20031;-72
2022/10/06 06:19:36;;;;;;;4.13;0.55;;;16.00;99.90;;;;;;5084922;28;20024;-72
2022/10/06 06:22:01;;;;;;;1.45;0.50;;;15.80;99.90;;;;;;5084191;28;20035;-73
2022/10/06 06:24:27;;;;;;;0.63;0.50;;;15.80;99.90;;;;;;5104230;28;20085;-72
2022/10/06 06:26:52;;;;;;;1.40;0.68;;;15.80;99.90;;;;;;5087406;28;20085;-71
2022/10/06 06:29:18;;;;;;;1.83;0.75;;;15.80;99.90;;;;;;5083143;28;20036;-72
2022/10/06 06:31:45;;;;;;;4.40;0.93;;;15.80;99.90;;;;;;5084512;28;20036;-69
2022/10/06 06:34:10;;;;;;;2.60;0.50;;;15.90;99.90;;;;;;5082865;28;20024;-69
2022/10/06 06:36:42;;;;;;;3.47;0.60;;;15.90;99.90;;;;;;5083455;28;20042;-69
2022/10/06 06:39:09;;;;;;;0.93;0.70;;;16.00;99.90;;;;;;5082732;28;20464;-69
2022/10/06 06:41:40;;;;;;;1.30;0.57;;;16.00;99.90;;;;;;5089163;28;20028;-68
2022/10/06 06:44:07;;;;;;;4.07;0.70;;;16.00;99.90;;;;;;5077925;28;20074;-68
2022/10/06 06:46:33;;;;;;;2.78;0.60;;;16.00;99.90;;;;;;5083731;28;20020;-74
2022/10/06 06:49:03;;;;;;;3.85;0.60;;;15.90;99.90;;;;;;5081288;28;20135;-73
2022/10/06 06:51:39;;;;;;;2.90;0.80;;;15.90;99.90;;;;;;5093340;28;20016;-74
2022/10/06 06:54:05;;;;;;;1.92;0.65;;;15.90;99.90;;;;;;5083801;28;20414;-74
2022/10/06 06:56:35;;;;;;;1.33;0.60;;;16.00;99.90;;;;;;5070861;28;20056;-73
2022/10/06 06:59:09;;;;;;;1.35;0.68;;;16.00;99.90;;;;;;5070554;28;20024;-74
2022/10/06 07:01:35;;;;;;;3.28;0.80;;;15.90;99.90;;;;;;5080233;28;20084;-74
2022/10/06 07:04:01;;;;;;;3.38;0.63;;;15.90;99.90;;;;;;5090500;28;20024;-73
2022/10/06 07:06:29;;;;;;;5.10;1.02;;;15.80;99.90;;;;;;5083420;28;20646;-73
2022/10/06 07:08:57;;;;;;;2.67;0.93;;;15.90;99.90;;;;;;5069432;28;20016;-73
2022/10/06 07:11:26;;;;;;;1.60;0.68;;;15.90;99.90;;;;;;5070524;28;20073;-74
2022/10/06 07:13:54;;;;;;;1.63;0.60;;;15.90;99.90;;;;;;5069677;28;20033;-74
2022/10/06 07:27:25;;;;;;;3.00;1.08;;;15.90;99.90;;;;;;5070411;28;20034;-74
2022/10/06 07:29:53;;;;;;;2.38;0.85;;;15.90;99.90;;;;;;5065270;28;20419;-70
2022/10/06 07:32:20;;;;;;;1.88;0.70;;;15.90;99.90;;;;;;5069078;28;20052;-73
2022/10/06 07:34:46;;;;;;;5.18;1.08;;;16.00;99.90;;;;;;5068628;28;20020;-72
2022/10/06 07:42:22;;;;;;;1.58;0.57;;;15.90;99.90;;;;;;4994134;23;20046;-71
2022/10/06 07:57:34;;;;;;;4.30;0.88;;;15.90;99.90;;;;;;5084432;28;20430;-84
2022/10/06 08:00:00;;;;;;;3.20;0.80;;;16.70;99.90;;;;;;5067048;28;20035;-83
2022/10/06 08:02:26;;;;;;;5.50;1.00;;;16.60;99.90;;;;;;5089405;28;20092;-85
2022/10/06 08:04:51;;;;;;;2.35;0.80;;;16.60;99.90;;;;;;5086196;28;20123;-82
2022/10/06 08:07:17;;;;;;;4.93;1.13;;;16.40;99.90;;;;;;5069293;28;20043;-83
2022/10/06 08:09:42;;;;;;;4.25;0.82;;;16.30;99.90;;;;;;5070609;28;20031;-85
2022/10/06 08:14:52;;;;;;;3.72;0.90;;;16.30;99.90;;;;;;5089175;28;20050;-81
2022/10/06 08:17:17;;;;;;;2.65;1.45;;;16.30;99.90;;;;;;5096188;28;20143;-82
2022/10/06 08:19:43;;;;;;;3.70;0.98;;;16.30;99.90;;;;;;5091236;28;20032;-84
2022/10/06 08:22:11;;;;;;;5.47;1.13;;;16.40;99.90;;;;;;5095741;28;20097;-85
2022/10/06 08:24:36;;;;;;;3.13;0.77;;;16.30;99.90;;;;;;5089384;28;20051;-86
2022/10/06 08:27:02;;;;;;;6.15;1.20;;;16.40;99.90;;;;;;5086518;28;20465;-88
2022/10/06 08:29:27;;;;;;;4.10;0.73;;;16.50;99.90;;;;;;5086445;28;20082;-84
2022/10/06 08:31:53;;;;;;;4.07;1.00;;;16.60;99.90;;;;;;5084510;28;20032;-83
2022/10/06 08:34:20;;;;;;;5.35;1.50;;;16.70;99.90;;;;;;5085315;28;20054;-84
2022/10/06 08:36:46;;;;;;;4.88;1.42;;;16.70;99.90;;;;;;5067417;28;20040;-85
2022/10/06 08:39:11;;;;;;;5.38;1.25;;;16.80;99.90;;;;;;5085649;28;20089;-84
2022/10/06 08:41:47;;;;;;;2.55;0.75;;;16.80;99.90;;;;;;5085170;28;20044;-85
2022/10/06 08:44:14;;;;;;;12.13;6.18;;;16.80;99.90;;;;;;5085190;28;20489;-84
2022/10/06 08:46:54;;;;;;;4.63;1.30;;;16.80;99.90;;;;;;5083765;28;20062;-84
2022/10/06 08:49:24;;;;;;;6.70;1.95;;;16.90;99.90;;;;;;5085201;28;20032;-87
2022/10/06 08:52:03;;;;;;;7.43;1.75;;;17.00;99.90;;;;;;5066390;28;20033;-84
2022/10/06 08:54:52;;;;;;;3.33;1.42;;;17.10;99.90;;;;;;5067153;28;20044;-86
2022/10/06 08:57:49;;;;;;;3.10;1.10;;;17.20;99.90;;;;;;5076518;28;20039;-85
2022/10/06 09:00:16;;;;;;;7.57;1.40;;;17.20;99.90;;;;;;5070608;28;20016;-85
2022/10/06 09:02:45;;;;;;;3.15;0.95;;;17.30;99.90;;;;;;5057627;28;20025;-85
2022/10/06 09:05:18;;;;;;;3.70;1.08;;;17.30;99.90;;;;;;5070857;28;20684;-86
2022/10/06 09:08:06;;;;;;;4.03;0.90;;;17.20;99.90;;;;;;5052475;28;20113;-85
2022/10/06 09:10:41;;;;;;;5.97;1.42;;;17.30;99.90;;;;;;5052322;28;20533;-88
2022/10/06 09:13:18;;;;;;;3.08;1.00;;;17.30;99.90;;;;;;5053579;28;20657;-84
2022/10/06 09:15:53;;;;;;;5.13;1.02;;;17.50;99.90;;;;;;5065850;28;20032;-85
2022/10/06 09:18:35;;;;;;;4.55;0.90;;;17.70;99.90;;;;;;5058268;28;20029;-84
2022/10/06 09:21:18;;;;;;;5.05;0.63;;;17.70;99.90;;;;;;5071543;28;20090;-84
2022/10/06 09:23:55;;;;;;;3.35;0.82;;;17.80;99.90;;;;;;5071189;28;20029;-87
2022/10/06 09:26:27;;;;;;;6.22;1.23;;;17.90;99.90;;;;;;5052420;28;20028;-85
2022/10/06 09:28:54;;;;;;;8.05;1.85;;;18.00;99.90;;;;;;5053207;28;20707;-89
2022/10/06 09:31:33;;;;;;;5.70;1.33;;;18.00;99.90;;;;;;5070724;28;20111;-87
2022/10/06 09:34:05;;;;;;;6.30;1.10;;;18.10;99.90;;;;;;5071153;28;20112;-87
2022/10/06 09:36:31;;;;;;;9.93;1.65;;;18.10;99.90;;;;;;5069260;28;20024;-86
2022/10/06 09:38:59;;;;;;;6.60;1.20;;;18.10;99.90;;;;;;5049117;28;20110;-84
2022/10/06 09:41:37;;;;;;;7.47;1.50;;;18.10;99.80;;;;;;5082094;28;20055;-87
2022/10/06 09:44:04;;;;;;;6.10;1.00;;;18.00;99.80;;;;;;5067266;28;20028;-87
2022/10/06 09:46:33;;;;;;;3.42;0.70;;;18.00;99.80;;;;;;5065727;28;20090;-84
2022/10/06 09:49:18;;;;;;;3.13;0.95;;;18.00;99.80;;;;;;5070625;28;20052;-84
2022/10/06 09:52:11;;;;;;;5.25;1.00;;;17.90;99.10;;;;;;5073049;28;20012;-83
2022/10/06 09:54:40;;;;;;;4.88;0.93;;;17.80;99.60;;;;;;5073508;28;20023;-84
2022/10/06 09:57:20;;;;;;;3.40;0.88;;;17.80;99.60;;;;;;5058708;28;20536;-84
2022/10/06 09:59:47;;;;;;;11.00;1.48;;;17.90;99.50;;;;;;5070729;28;20025;-85
2022/10/06 10:02:29;;;;;;;3.50;0.90;;;17.90;98.90;;;;;;5056640;28;20047;-87
2022/10/06 10:04:56;;;;;;;1.67;0.65;;;18.10;99.00;;;;;;5069759;28;20059;-88
2022/10/06 10:07:27;;;;;;;3.33;0.73;;;18.30;98.70;;;;;;5069979;28;20078;-84
2022/10/06 10:10:13;;;;;;;7.43;1.95;;;18.40;98.90;;;;;;5069897;28;20494;-85
2022/10/06 10:12:49;;;;;;;5.32;0.90;;;18.50;98.10;;;;;;5071088;28;20522;-86
2022/10/06 10:15:17;;;;;;;6.15;0.88;;;18.60;97.30;;;;;;5069919;28;20398;-84
2022/10/06 10:17:51;;;;;;;8.30;0.88;;;18.70;97.70;;;;;;5055959;28;20026;-86
2022/10/06 10:20:34;;;;;;;5.03;0.82;;;18.70;97.10;;;;;;5090394;28;20371;-85
2022/10/06 10:23:04;;;;;;;3.13;0.75;;;18.70;97.60;;;;;;5054711;28;20154;-73
2022/10/06 10:25:52;;;;;;;49.38;1.98;;;18.70;98.20;;;;;;5066512;28;20075;-81
2022/10/06 10:28:49;;;;;;;4.43;0.98;;;18.80;98.30;;;;;;5065840;28;20493;-86
2022/10/06 10:31:56;;;;;;;3.85;0.80;;;18.90;97.70;;;;;;5044017;28;20029;-85
2022/10/06 10:34:37;;;;;;;4.28;0.63;;;19.00;96.90;;;;;;5076654;28;20024;-81
2022/10/06 10:37:13;;;;;;;5.93;1.13;;;19.10;97.40;;;;;;5070199;28;20025;-81
2022/10/06 10:40:11;;;;;;;7.47;1.00;;;19.00;96.70;;;;;;5081757;28;20088;-90
2022/10/06 10:42:44;;;;;;;5.45;1.02;;;19.10;97.40;;;;;;4981783;28;20126;-91
2022/10/06 10:45:31;;;;;;;8.05;1.23;;;19.20;97.10;;;;;;5042193;28;20040;-88
2022/10/06 10:47:58;;;;;;;11.73;1.08;;;19.30;97.60;;;;;;5045565;28;20489;-87
2022/10/06 10:50:41;;;;;;;5.00;0.88;;;19.30;96.20;;;;;;5069933;28;20028;-89
2022/10/06 10:53:13;;;;;;;5.20;0.80;;;19.30;95.50;;;;;;5052537;28;20443;-90
2022/10/06 10:55:43;;;;;;;3.78;0.80;;;19.10;95.60;;;;;;5070333;28;20059;-87
2022/10/06 10:58:30;;;;;;;4.18;1.23;;;19.10;95.40;;;;;;5065651;28;20024;-89
2022/10/06 11:01:15;;;;;;;4.68;1.08;;;19.10;94.70;;;;;;5069081;28;20514;-89
2022/10/06 11:03:55;;;;;;;6.55;1.55;;;19.10;94.90;;;;;;5069169;28;20494;-89
2022/10/06 11:06:48;;;;;;;3.70;0.90;;;19.20;94.60;;;;;;5069825;28;20467;-91
2022/10/06 11:09:19;;;;;;;3.55;0.90;;;19.10;94.50;;;;;;5050833;28;20724;-91
2022/10/06 11:12:12;;;;;;;3.13;0.60;;;19.20;94.50;;;;;;5070621;28;20024;-90
2022/10/06 11:14:53;;;;;;;;;;;19.20;95.20;;;;;;5070814;28;20094;-91
2022/10/06 11:17:38;;;;;;;4.38;0.90;;;19.40;95.10;;;;;;5059596;28;19921;-89
2022/10/06 11:20:18;;;;;;;4.43;0.98;;;19.40;94.60;;;;;;5052117;28;20017;-91
2022/10/06 11:23:00;;;;;;;2.88;0.98;;;19.40;93.90;;;;;;5069070;28;20020;-89
2022/10/06 11:25:45;;;;;;;6.65;1.33;;;19.40;94.20;;;;;;5072595;28;20040;-88
2022/10/06 11:28:23;;;;;;;4.32;0.80;;;19.40;93.60;;;;;;5080033;28;20024;-89
2022/10/06 11:31:20;;;;;;;3.88;0.80;;;19.30;94.10;;;;;;5087141;28;20120;-87
2022/10/06 11:33:53;;;;;;;4.65;1.05;;;19.30;93.70;;;;;;5061973;28;20029;-89
2022/10/06 11:36:56;;;;;;;3.60;0.95;;;19.40;93.40;;;;;;5043990;28;20059;-89
2022/10/06 11:39:42;;;;;;;8.40;1.08;;;19.40;93.90;;;;;;5060610;28;20043;-90
2022/10/06 11:42:21;;;;;;;3.10;0.70;;;19.50;93.20;;;;;;5074218;28;20082;-88
2022/10/06 11:44:55;;;;;;;7.95;1.00;;;19.60;92.80;;;;;;5085783;28;20058;-89
2022/10/06 11:47:26;;;;;;;2.17;0.52;;;19.70;93.10;;;;;;5095082;28;20032;-89
2022/10/06 11:49:54;;;;;;;3.33;0.90;;;19.90;91.10;;;;;;5107932;28;20028;-89
2022/10/06 11:52:20;;;;;;;2.72;0.88;;;19.90;92.00;;;;;;5093018;28;20012;-87
2022/10/06 11:54:51;;;;;;;4.22;1.20;;;20.00;90.90;;;;;;5093504;28;20035;-90
2022/10/06 11:57:24;;;;;;;5.60;1.27;;;20.10;91.60;;;;;;5073450;28;20063;-90
2022/10/06 12:00:09;;;;;;;5.57;1.00;;;20.00;89.90;;;;;;5072824;28;20473;-90
2022/10/06 12:02:37;;;;;;;4.38;1.02;;;20.00;91.20;;;;;;5078093;28;20030;-89
2022/10/06 12:05:32;;;;;;;3.88;0.93;;;20.10;90.60;;;;;;5072621;28;20037;-90
2022/10/06 12:07:58;;;;;;;3.90;0.88;;;20.10;90.30;;;;;;5060286;28;20031;-90
2022/10/06 12:10:26;;;;;;;5.25;0.70;;;20.10;90.40;;;;;;5089698;28;20111;-88
2022/10/06 12:13:11;;;;;;;6.53;0.88;;;20.30;88.70;;;;;;5056058;28;20376;-91
2022/10/06 12:15:45;;;;;;;4.07;1.00;;;20.40;88.60;;;;;;5056413;28;20080;-89
2022/10/06 12:18:43;;;;;;;3.40;1.02;;;20.50;89.50;;;;;;5041154;28;20031;-88
2022/10/06 12:21:33;;;;;;;6.07;0.85;;;20.60;89.60;;;;;;5050396;28;20062;-91
2022/10/06 12:24:05;;;;;;;2.90;0.75;;;20.60;89.10;;;;;;5050305;28;20059;-89
2022/10/06 12:26:36;;;;;;;1.63;0.70;;;20.50;89.20;;;;;;5052680;28;20029;-90
2022/10/06 12:29:35;;;;;;;2.30;0.70;;;20.50;87.70;;;;;;5059775;28;20027;-91
2022/10/06 12:32:06;;;;;;;2.85;0.50;;;20.60;86.50;;;;;;5069945;28;20059;-89
2022/10/06 12:34:43;;;;;;;1.73;0.60;;;20.60;84.60;;;;;;5041384;28;20029;-88
2022/10/06 12:37:27;;;;;;;4.57;0.93;;;20.60;82.30;;;;;;5054266;28;20045;-89
2022/10/06 12:40:12;;;;;;;4.70;0.82;;;20.50;83.30;;;;;;5082342;28;20027;-92
2022/10/06 12:42:38;;;;;;;7.20;0.70;;;20.40;83.30;;;;;;5075946;28;20032;-88
2022/10/06 12:45:14;;;;;;;2.38;0.60;;;20.40;84.80;;;;;;5073741;28;20040;-89
2022/10/06 12:47:43;;;;;;;3.92;0.70;;;20.50;83.00;;;;;;5059856;28;20458;-88
2022/10/06 12:50:25;;;;;;;5.20;0.98;;;20.60;83.40;;;;;;5070185;28;20033;-89
2022/10/06 12:53:04;;;;;;;5.30;1.10;;;20.60;82.80;;;;;;5070793;28;20021;-87
2022/10/06 12:55:52;;;;;;;5.13;1.13;;;20.50;84.90;;;;;;5064261;28;20028;-81
2022/10/06 12:58:25;;;;;;;3.47;0.93;;;20.60;82.40;;;;;;5075147;28;20035;-86
2022/10/06 13:00:50;;;;;;;;;;;20.60;83.40;;;;;;5053246;28;20406;-87
2022/10/06 13:03:24;;;;;;;2.10;0.60;;;20.60;84.00;;;;;;5042783;28;19913;-87
2022/10/06 13:05:56;;;;;;;3.67;1.00;;;20.60;84.60;;;;;;5050506;28;20040;-87
2022/10/06 13:08:30;;;;;;;5.38;1.02;;;20.70;84.30;;;;;;5068969;28;20024;-86
2022/10/06 13:11:14;;;;;;;4.40;1.17;;;20.70;84.90;;;;;;5063841;28;20312;-87
2022/10/06 13:13:50;;;;;;;4.88;0.95;;;20.80;85.90;;;;;;5074764;28;20032;-86
2022/10/06 13:16:20;;;;;;;3.70;0.77;;;20.90;85.40;;;;;;5083754;28;20043;-86
2022/10/06 13:18:47;;;;;;;2.72;0.63;;;21.10;84.10;;;;;;5074704;28;20024;-86
2022/10/06 13:21:15;;;;;;;3.55;0.65;;;21.10;83.50;;;;;;5071326;28;20020;-87
2022/10/06 13:23:41;;;;;;;8.00;0.90;;;21.10;83.10;;;;;;5057194;28;20028;-87
2022/10/06 13:26:23;;;;;;;4.68;1.00;;;21.00;82.50;;;;;;5091128;28;20511;-86
2022/10/06 13:28:56;;;;;;;3.75;0.63;;;21.00;83.10;;;;;;5072119;28;20029;-86
2022/10/06 13:31:27;;;;;;;3.38;0.75;;;20.90;83.20;;;;;;5051178;28;20047;-87
2022/10/06 13:34:01;;;;;;;3.42;0.77;;;20.90;83.70;;;;;;5054877;28;20035;-86
2022/10/06 13:36:28;;;;;;;4.90;0.73;;;20.90;84.40;;;;;;5069538;28;20032;-86
2022/10/06 13:38:54;;;;;;;2.60;0.95;;;21.00;83.90;;;;;;5054213;28;20717;-86
2022/10/06 13:41:34;;;;;;;5.72;1.10;;;21.00;82.10;;;;;;5070051;28;20052;-87
2022/10/06 13:44:05;;;;;;;13.70;1.20;;;20.80;83.10;;;;;;5050949;28;20106;-86
2022/10/06 13:46:38;;;;;;;9.40;1.33;;;20.80;83.60;;;;;;5068000;28;20048;-87
2022/10/06 13:49:19;;;;;;;3.40;0.55;;;20.70;84.60;;;;;;5060620;28;20098;-87
2022/10/06 13:51:51;;;;;;;3.75;0.65;;;20.70;84.70;;;;;;5067739;28;20143;-88
2022/10/06 13:54:24;;;;;;;4.07;0.82;;;20.70;83.50;;;;;;5054030;28;20051;-86
2022/10/06 13:56:49;;;;;;;2.75;0.90;;;20.70;84.00;;;;;;5053089;28;20032;-87
2022/10/06 13:59:27;;;;;;;4.05;1.38;;;20.70;84.10;;;;;;5058766;28;20028;-86
2022/10/06 14:01:54;;;;;;;10.57;1.27;;;20.80;84.20;;;;;;5073707;28;20033;-87
2022/10/06 14:04:21;;;;;;;3.67;1.00;;;20.90;84.00;;;;;;5057578;28;20033;-89
2022/10/06 14:06:53;;;;;;;5.15;1.10;;;20.90;82.90;;;;;;5073187;28;20501;-86
2022/10/06 14:09:23;;;;;;;4.80;0.77;;;20.80;81.60;;;;;;5074109;28;20031;-87
2022/10/06 14:11:49;;;;;;;6.18;1.15;;;20.80;82.00;;;;;;5068926;28;20067;-83
2022/10/06 14:14:16;;;;;;;3.05;0.80;;;20.70;81.70;;;;;;5073083;28;20013;-86
2022/10/06 14:16:51;;;;;;;5.68;0.52;;;20.50;81.00;;;;;;5067297;28;20024;-84
2022/10/06 14:19:31;;;;;;;3.70;0.70;;;20.30;84.80;;;;;;5077514;28;20058;-82
2022/10/06 14:21:57;;;;;;;5.28;0.90;;;20.20;83.10;;;;;;5084698;28;20030;-84
2022/10/06 14:24:36;;;;;;;3.78;1.17;;;20.20;84.00;;;;;;5105482;28;20490;-83
2022/10/06 14:27:05;;;;;;;5.13;0.70;;;20.10;83.30;;;;;;5081284;28;20067;-82
2022/10/06 14:29:30;;;;;;;3.33;0.77;;;20.10;82.40;;;;;;5063757;28;20021;-87
2022/10/06 14:32:12;;;;;;;3.53;0.70;;;20.10;82.10;;;;;;5052070;28;20102;-87
2022/10/06 14:34:39;;;;;;;3.95;0.80;;;20.20;82.80;;;;;;5051707;28;20120;-86
2022/10/06 14:37:04;;;;;;;4.85;0.68;;;20.10;81.70;;;;;;5032525;28;20513;-87
2022/10/06 14:39:30;;;;;;;3.53;0.47;;;20.00;80.60;;;;;;5033578;28;20051;-86
2022/10/06 14:41:56;;;;;;;6.78;0.93;;;19.90;81.60;;;;;;5061675;28;20031;-86
2022/10/06 14:44:21;;;;;;;4.22;0.75;;;19.80;81.30;;;;;;5056030;28;20410;-83
2022/10/06 14:46:47;;;;;;;3.85;1.13;;;19.70;82.40;;;;;;5032688;28;20037;-85
2022/10/06 14:49:13;;;;;;;2.70;1.00;;;19.80;82.70;;;;;;5054113;28;20032;-85
2022/10/06 14:51:40;;;;;;;1.52;0.70;;;19.80;80.40;;;;;;5071725;28;20539;-86
2022/10/06 14:54:07;;;;;;;2.58;0.88;;;19.70;82.00;;;;;;5073347;28;20688;-84
2022/10/06 14:56:36;;;;;;;6.03;0.60;;;19.70;80.60;;;;;;5068912;28;20505;-87
2022/10/06 14:59:05;;;;;;;9.93;0.82;;;19.70;80.80;;;;;;5056207;28;20111;-86
2022/10/06 15:01:36;;;;;;;3.85;0.70;;;19.70;82.50;;;;;;5054405;28;20029;-83
2022/10/06 15:04:08;;;;;;;6.03;1.13;;;19.70;82.40;;;;;;5055357;28;20033;-82
2022/10/06 15:09:18;;;;;;;4.35;0.80;;;19.70;81.60;;;;;;5080555;28;20054;-80
2022/10/06 15:11:43;;;;;;;7.35;0.95;;;19.60;81.30;;;;;;5083438;28;20020;-84
2022/10/06 15:14:09;;;;;;;4.82;0.80;;;19.50;82.20;;;;;;5070731;28;20024;-86
2022/10/06 15:16:39;;;;;;;5.10;1.17;;;19.50;83.20;;;;;;5101916;28;20033;-85
2022/10/06 15:19:05;;;;;;;2.67;0.70;;;19.50;82.80;;;;;;5078998;28;20036;-82
2022/10/06 15:21:31;;;;;;;3.90;0.88;;;19.50;82.80;;;;;;5076285;28;20389;-85
2022/10/06 15:23:59;;;;;;;9.13;1.33;;;19.50;82.60;;;;;;5076129;28;20481;-82
2022/10/06 15:29:10;;;;;;;2.67;0.68;;;19.40;82.50;;;;;;5074229;28;20085;-82
2022/10/06 15:31:37;;;;;;;2.35;0.88;;;19.30;83.30;;;;;;5087598;28;20101;-84
2022/10/06 15:34:07;;;;;;;3.65;1.05;;;19.30;83.50;;;;;;5071645;28;20032;-85
2022/10/06 15:36:35;;;;;;;5.25;0.93;;;19.20;84.20;;;;;;5073010;28;20025;-84
2022/10/06 15:39:09;;;;;;;2.35;0.80;;;19.20;84.30;;;;;;5069695;28;20025;-79
2022/10/06 15:41:37;;;;;;;4.22;1.08;;;19.10;84.20;;;;;;5069381;28;20056;-79
2022/10/06 15:44:04;;;;;;;2.60;0.80;;;19.10;84.60;;;;;;5050947;28;20036;-81
2022/10/06 15:46:31;;;;;;;1.98;0.73;;;19.10;84.50;;;;;;5068832;28;20106;-81
2022/10/06 15:49:02;;;;;;;4.88;1.10;;;19.10;85.00;;;;;;5069456;28;20032;-82
2022/10/06 15:51:30;;;;;;;5.95;1.45;;;19.00;85.00;;;;;;5069615;28;20029;-81
2022/10/06 15:53:57;;;;;;;6.00;1.02;;;18.90;84.20;;;;;;5068694;28;20037;-79
2022/10/06 15:56:24;;;;;;;3.38;1.20;;;18.90;84.00;;;;;;5080397;28;20085;-83
2022/10/06 15:58:49;;;;;;;4.13;0.82;;;18.90;84.10;;;;;;5058811;28;20029;-82
2022/10/06 16:01:36;;;;;;;3.90;0.70;;;18.80;83.90;;;;;;5089049;28;20028;-82
2022/10/06 16:04:11;;;;;;;1.08;0.60;;;18.70;83.80;;;;;;5072953;28;20035;-83
2022/10/06 16:06:53;;;;;;;3.45;1.48;;;18.60;84.80;;;;;;5068919;28;20037;-82
2022/10/06 16:09:19;;;;;;;3.50;0.77;;;18.60;84.40;;;;;;5073370;28;20048;-82
2022/10/06 16:11:46;;;;;;;2.25;1.20;;;18.50;85.50;;;;;;5072990;28;20029;-83
2022/10/06 16:14:12;;;;;;;3.40;0.70;;;18.40;84.50;;;;;;5079565;28;20032;-81
2022/10/06 16:16:38;;;;;;;4.10;0.93;;;18.40;84.70;;;;;;5080471;28;20028;-82
2022/10/06 16:19:03;;;;;;;2.97;1.00;;;18.30;85.00;;;;;;5081817;28;20113;-82
2022/10/06 16:21:30;;;;;;;4.50;1.02;;;18.30;85.20;;;;;;5093478;28;20032;-81
2022/10/06 16:23:57;;;;;;;2.47;1.10;;;18.20;86.10;;;;;;5075238;28;20039;-82
2022/10/06 16:26:23;;;;;;;2.33;1.13;;;18.20;85.90;;;;;;5079847;28;20036;-83
2022/10/06 16:28:49;;;;;;;2.97;1.15;;;18.10;85.90;;;;;;5070060;28;20035;-83
2022/10/06 16:31:16;;;;;;;1.77;0.85;;;18.10;86.60;;;;;;5072908;28;20017;-83
2022/10/06 16:33:43;;;;;;;2.92;1.08;;;18.00;86.30;;;;;;5052510;28;20063;-83
2022/10/06 16:36:09;;;;;;;5.45;1.05;;;18.00;86.40;;;;;;5067026;28;20028;-83
2022/10/06 16:38:36;;;;;;;4.65;1.20;;;17.90;86.90;;;;;;5069460;28;20031;-82
2022/10/06 16:41:03;;;;;;;4.55;1.48;;;17.90;86.80;;;;;;5070106;28;20039;-83
2022/10/06 16:43:40;;;;;;;2.72;1.00;;;17.80;87.60;;;;;;5053481;28;20099;-82
2022/10/06 16:46:18;;;;;;;4.97;1.27;;;17.70;88.00;;;;;;5068716;28;20035;-83
2022/10/06 16:48:45;;;;;;;2.25;1.02;;;17.60;88.30;;;;;;5068093;28;20466;-81
2022/10/06 16:51:24;;;;;;;3.70;1.10;;;17.50;90.10;;;;;;5069785;28;20040;-82
2022/10/06 16:53:55;;;;;;;1.83;0.70;;;17.40;90.40;;;;;;5070086;28;20045;-81
2022/10/06 16:56:28;;;;;;;2.40;1.17;;;17.40;90.60;;;;;;5062353;28;20042;-83
2022/10/06 16:58:55;;;;;;;;;;;17.30;90.90;;;;;;5047687;28;20106;-83
2022/10/06 17:01:26;;;;;;;5.95;1.48;;;17.20;91.20;;;;;;5064433;28;19951;-81
2022/10/06 17:04:14;;;;;;;3.22;0.93;;;17.00;91.40;;;;;;5065689;28;20037;-81
2022/10/06 17:06:50;;;;;;;4.68;1.27;;;16.90;91.60;;;;;;5069466;28;20053;-81
2022/10/06 17:09:20;;;;;;;1.65;1.20;;;16.80;91.90;;;;;;5069215;28;20263;-82
2022/10/06 17:11:51;;;;;;;6.43;1.52;;;16.70;92.20;;;;;;5067518;28;20033;-82
2022/10/06 17:14:18;;;;;;;2.50;1.08;;;16.60;92.50;;;;;;5071095;28;20041;-81
2022/10/06 17:16:45;;;;;;;1.67;0.85;;;16.50;92.70;;;;;;5071400;28;20032;-80
2022/10/06 17:19:12;;;;;;;2.65;1.13;;;16.40;92.90;;;;;;5067407;28;20064;-81
2022/10/06 17:21:38;;;;;;;6.03;1.75;;;16.30;93.10;;;;;;5068473;28;20393;-80
2022/10/06 17:24:04;;;;;;;3.78;1.83;;;16.20;93.40;;;;;;5070126;28;20036;-83
2022/10/06 17:26:35;;;;;;;6.13;1.55;;;16.10;93.70;;;;;;5050931;28;20563;-81
2022/10/06 17:29:04;;;;;;;6.47;2.40;;;16.00;94.00;;;;;;5067889;28;20024;-81
2022/10/06 17:31:34;;;;;;;5.10;2.13;;;15.90;94.20;;;;;;5069046;28;20028;-81
2022/10/06 17:34:01;;;;;;;5.90;2.03;;;15.80;94.50;;;;;;5066008;28;20028;-83
2022/10/06 17:36:27;;;;;;;6.20;2.35;;;15.70;94.70;;;;;;5066931;28;20032;-82
2022/10/06 17:39:00;;;;;;;6.05;2.90;;;15.60;94.80;;;;;;5069630;28;20044;-80
2022/10/06 17:41:28;;;;;;;7.80;2.65;;;15.60;94.90;;;;;;5068322;28;20114;-80
2022/10/06 17:44:02;;;;;;;6.35;3.15;;;15.50;95.10;;;;;;5063208;28;20464;-80
2022/10/06 17:46:28;;;;;;;9.75;3.60;;;15.50;95.50;;;;;;5065850;28;20032;-81
2022/10/06 17:48:55;;;;;;;6.43;3.13;;;15.40;95.70;;;;;;5066109;28;20028;-81
2022/10/06 17:51:23;;;;;;;6.28;2.60;;;15.30;96.00;;;;;;5071917;28;20111;-80
2022/10/06 17:53:51;;;;;;;5.85;3.08;;;15.20;96.40;;;;;;5073762;28;20119;-80
2022/10/06 17:56:22;;;;;;;7.43;3.20;;;15.20;96.50;;;;;;5068788;28;20055;-82
2022/10/06 17:58:56;;;;;;;6.53;3.25;;;15.20;96.80;;;;;;5075617;28;20050;-81
2022/10/06 18:01:25;;;;;;;7.47;3.47;;;15.10;96.90;;;;;;5093097;28;20108;-80
2022/10/06 18:03:54;;;;;;;5.78;3.00;;;15.00;97.00;;;;;;5083837;28;20031;-81
2022/10/06 18:06:23;;;;;;;9.30;3.88;;;15.00;97.30;;;;;;5071403;28;20037;-80
2022/10/06 18:08:48;;;;;;;10.27;4.00;;;14.90;97.60;;;;;;5076031;28;20027;-81
2022/10/06 18:11:34;;;;;;;6.20;3.75;;;14.90;97.80;;;;;;5075107;28;20024;-81
2022/10/06 18:14:03;;;;;;;9.32;4.20;;;14.80;98.00;;;;;;5062520;28;20042;-84
2022/10/06 18:16:35;;;;;;;10.82;4.57;;;14.70;98.10;;;;;;5068219;28;20654;-82
2022/10/06 18:19:06;;;;;;;10.30;5.13;;;14.70;98.30;;;;;;5076921;28;20091;-81
2022/10/06 18:21:37;;;;;;;9.27;4.35;;;14.60;98.50;;;;;;5074430;28;20064;-82
2022/10/06 18:24:04;;;;;;;8.10;3.60;;;14.60;98.80;;;;;;5049393;28;20025;-82
2022/10/06 18:26:30;;;;;;;9.13;3.92;;;14.50;99.20;;;;;;5068033;28;20097;-81
2022/10/06 18:28:55;;;;;;;6.72;3.92;;;14.50;99.40;;;;;;5074387;28;20625;-81
2022/10/06 18:31:21;;;;;;;10.88;4.55;;;14.40;99.70;;;;;;5077770;28;20032;-82
2022/10/06 18:33:48;;;;;;;11.18;5.05;;;14.30;99.90;;;;;;5072012;28;20036;-80
2022/10/06 18:36:14;;;;;;;9.70;3.95;;;14.30;99.90;;;;;;5071376;28;20043;-81
2022/10/06 18:38:42;;;;;;;7.78;3.17;;;14.30;99.90;;;;;;5070057;28;20090;-78
2022/10/06 18:41:13;;;;;;;8.10;3.22;;;14.20;99.90;;;;;;5066084;28;20393;-78
2022/10/06 18:43:39;;;;;;;9.82;3.92;;;14.10;99.90;;;;;;5062178;28;20024;-79
2022/10/06 18:48:54;;;;;;;14.40;4.22;;;14.00;99.90;;;;;;5062188;28;20138;-84
2022/10/06 18:51:44;;;;;;;8.95;4.45;;;14.00;99.90;;;;;;5037079;28;20037;-82
2022/10/06 18:54:14;;;;;;;8.95;4.40;;;13.90;99.90;;;;;;5061726;28;20036;-82
2022/10/06 18:56:40;;;;;;;6.88;4.75;;;13.90;99.90;;;;;;5061259;28;20039;-82
2022/10/06 18:59:15;;;;;;;8.85;3.83;;;13.80;99.90;;;;;;5043347;28;20074;-81
2022/10/06 19:01:43;;;;;;;10.95;4.80;;;13.70;99.90;;;;;;5064480;28;20111;-81
2022/10/06 19:04:11;;;;;;;8.25;4.88;;;13.60;99.90;;;;;;5062627;28;20496;-81
2022/10/06 19:06:37;;;;;;;9.45;4.30;;;13.60;99.90;;;;;;5058253;28;20036;-85
2022/10/06 19:09:04;;;;;;;7.63;4.95;;;13.60;99.90;;;;;;5044237;28;20027;-81
2022/10/06 19:11:51;;;;;;;11.70;4.97;;;13.50;99.90;;;;;;5061101;28;20089;-80
2022/10/06 19:14:22;;;;;;;11.90;4.82;;;13.50;99.90;;;;;;5061053;28;20470;-80
2022/10/06 19:17:00;;;;;;;7.07;4.85;;;13.50;99.90;;;;;;5065411;28;20028;-82
2022/10/06 19:19:28;;;;;;;10.10;5.13;;;13.40;99.90;;;;;;5067769;28;20028;-81
2022/10/06 19:21:58;;;;;;;9.85;4.63;;;13.40;99.90;;;;;;5067504;28;20060;-81
2022/10/06 19:24:26;;;;;;;10.57;4.38;;;13.30;99.90;;;;;;5070237;28;20035;-81
2022/10/06 19:26:55;;;;;;;12.20;5.75;;;13.30;99.90;;;;;;5066295;28;20040;-81
2022/10/06 19:29:22;;;;;;;9.82;5.03;;;13.20;99.90;;;;;;5060091;28;20029;-81
2022/10/06 19:31:50;;;;;;;12.35;5.55;;;13.20;99.90;;;;;;5063395;28;20498;-81
2022/10/06 19:34:17;;;;;;;11.57;6.00;;;13.20;99.90;;;;;;5065400;28;20060;-82
2022/10/06 19:36:48;;;;;;;9.48;4.85;;;13.10;99.90;;;;;;5065051;28;20120;-81
2022/10/06 19:39:14;;;;;;;12.50;5.95;;;13.10;99.90;;;;;;5063809;28;20028;-80